sensor_id;sensor_type;location;lat;lon;timestamp;temperature;humidity
3684;DHT22;1858;48.716;9.648;2024-03-02T00:00:21;7.30;1.00
3684;DHT22;1858;48.716;9.648;2024-03-02T00:02:51;7.20;1.00
3684;DHT22;1858;48.716;9.648;2024-03-02T00:05:19;7.20;1.00
3684;DHT22;1858;48.716;9.648;2024-03-02T00:07:57;7.20;1.00
3684;DHT22;1858;48.716;9.648;2024-03-02T00:10:37;7.20;1.00
3684;DHT22;1858;48.716;9.648;2024-03-02T00:13:08;7.10;1.00
3684;DHT22;1858;48.716;9.648;2024-03-02T00:15:56;7.20;1.00
3684;DHT22;1858;48.716;9.648;2024-03-02T00:18:29;7.10;1.00
3684;DHT22;1858;48.716;9.648;2024-03-02T00:20:56;7.10;1.00
3684;DHT22;1858;48.716;9.648;2024-03-02T00:23:24;7.10;1.00
3684;DHT22;1858;48.716;9.648;2024-03-02T00:25:54;7.10;1.00
3684;DHT22;1858;48.716;9.648;2024-03-02T00:28:41;7.20;1.00
3684;DHT22;1858;48.716;9.648;2024-03-02T00:31:14;7.10;1.00
3684;DHT22;1858;48.716;9.648;2024-03-02T00:33:42;7.10;1.00
3684;DHT22;1858;48.716;9.648;2024-03-02T00:36:11;7.00;1.00
3684;DHT22;1858;48.716;9.648;2024-03-02T00:38:46;7.00;1.00
3684;DHT22;1858;48.716;9.648;2024-03-02T00:41:33;6.90;1.00
3684;DHT22;1858;48.716;9.648;2024-03-02T00:44:03;6.90;5.00
3684;DHT22;1858;48.716;9.648;2024-03-02T00:46:36;7.00;1.00
3684;DHT22;1858;48.716;9.648;2024-03-02T00:49:04;6.90;1.00
3684;DHT22;1858;48.716;9.648;2024-03-02T00:51:32;6.90;1.00
3684;DHT22;1858;48.716;9.648;2024-03-02T00:54:02;6.80;1.00
3684;DHT22;1858;48.716;9.648;2024-03-02T00:56:30;6.80;1.00
3684;DHT22;1858;48.716;9.648;2024-03-02T00:58:58;6.80;1.00
3684;DHT22;1858;48.716;9.648;2024-03-02T01:01:26;6.90;8.90
3684;DHT22;1858;48.716;9.648;2024-03-02T01:03:53;6.80;1.00
3684;DHT22;1858;48.716;9.648;2024-03-02T01:06:21;6.90;1.00
3684;DHT22;1858;48.716;9.648;2024-03-02T01:08:49;6.80;1.00
3684;DHT22;1858;48.716;9.648;2024-03-02T01:11:17;6.80;1.00
3684;DHT22;1858;48.716;9.648;2024-03-02T01:13:45;6.80;1.00
3684;DHT22;1858;48.716;9.648;2024-03-02T01:16:13;6.80;1.00
3684;DHT22;1858;48.716;9.648;2024-03-02T01:18:42;6.80;1.00
3684;DHT22;1858;48.716;9.648;2024-03-02T01:21:09;6.80;1.00
3684;DHT22;1858;48.716;9.648;2024-03-02T01:23:37;6.70;1.00
3684;DHT22;1858;48.716;9.648;2024-03-02T01:26:05;6.70;1.00
3684;DHT22;1858;48.716;9.648;2024-03-02T01:28:33;6.70;1.00
3684;DHT22;1858;48.716;9.648;2024-03-02T01:31:00;6.80;1.00
3684;DHT22;1858;48.716;9.648;2024-03-02T01:33:28;6.80;1.00
3684;DHT22;1858;48.716;9.648;2024-03-02T01:35:56;6.90;1.00
3684;DHT22;1858;48.716;9.648;2024-03-02T01:38:23;6.80;1.00
3684;DHT22;1858;48.716;9.648;2024-03-02T01:40:51;6.70;1.00
3684;DHT22;1858;48.716;9.648;2024-03-02T01:43:19;6.70;1.00
3684;DHT22;1858;48.716;9.648;2024-03-02T01:45:46;6.60;1.00
3684;DHT22;1858;48.716;9.648;2024-03-02T01:48:15;6.60;1.00
3684;DHT22;1858;48.716;9.648;2024-03-02T01:50:42;6.60;1.00
3684;DHT22;1858;48.716;9.648;2024-03-02T01:53:10;6.60;1.00
3684;DHT22;1858;48.716;9.648;2024-03-02T01:55:38;6.60;1.00
3684;DHT22;1858;48.716;9.648;2024-03-02T01:58:05;6.50;1.00
3684;DHT22;1858;48.716;9.648;2024-03-02T02:03:20;6.60;1.90
3684;DHT22;1858;48.716;9.648;2024-03-02T02:05:48;6.60;99.90
3684;DHT22;1858;48.716;9.648;2024-03-02T02:08:15;6.60;99.90
3684;DHT22;1858;48.716;9.648;2024-03-02T02:10:43;6.70;99.90
3684;DHT22;1858;48.716;9.648;2024-03-02T02:13:11;6.70;99.90
3684;DHT22;1858;48.716;9.648;2024-03-02T02:15:38;6.60;99.90
3684;DHT22;1858;48.716;9.648;2024-03-02T02:18:06;6.70;99.90
3684;DHT22;1858;48.716;9.648;2024-03-02T02:20:33;6.70;99.90
3684;DHT22;1858;48.716;9.648;2024-03-02T02:23:02;6.70;99.90
3684;DHT22;1858;48.716;9.648;2024-03-02T02:25:49;6.70;99.90
3684;DHT22;1858;48.716;9.648;2024-03-02T02:28:17;6.80;99.90
3684;DHT22;1858;48.716;9.648;2024-03-02T02:30:45;6.80;99.90
3684;DHT22;1858;48.716;9.648;2024-03-02T02:33:12;6.80;99.90
3684;DHT22;1858;48.716;9.648;2024-03-02T02:35:40;6.80;39.40
3684;DHT22;1858;48.716;9.648;2024-03-02T02:38:07;6.70;1.00
3684;DHT22;1858;48.716;9.648;2024-03-02T02:40:35;6.60;1.00
3684;DHT22;1858;48.716;9.648;2024-03-02T02:43:03;6.50;1.00
3684;DHT22;1858;48.716;9.648;2024-03-02T02:45:30;6.60;1.00
3684;DHT22;1858;48.716;9.648;2024-03-02T02:47:58;6.60;94.00
3684;DHT22;1858;48.716;9.648;2024-03-02T02:50:27;6.70;99.90
3684;DHT22;1858;48.716;9.648;2024-03-02T02:52:55;6.80;99.90
3684;DHT22;1858;48.716;9.648;2024-03-02T02:55:22;6.80;99.90
3684;DHT22;1858;48.716;9.648;2024-03-02T02:57:50;6.80;99.90
3684;DHT22;1858;48.716;9.648;2024-03-02T03:00:18;6.80;99.90
3684;DHT22;1858;48.716;9.648;2024-03-02T03:02:46;6.80;99.90
3684;DHT22;1858;48.716;9.648;2024-03-02T03:05:15;6.70;99.90
3684;DHT22;1858;48.716;9.648;2024-03-02T03:07:42;6.70;99.90
3684;DHT22;1858;48.716;9.648;2024-03-02T03:10:11;6.70;99.90
3684;DHT22;1858;48.716;9.648;2024-03-02T03:12:39;6.60;99.90
3684;DHT22;1858;48.716;9.648;2024-03-02T03:15:08;6.70;99.90
3684;DHT22;1858;48.716;9.648;2024-03-02T03:17:36;6.60;99.90
3684;DHT22;1858;48.716;9.648;2024-03-02T03:20:04;6.60;99.90
3684;DHT22;1858;48.716;9.648;2024-03-02T03:22:38;6.60;99.90
3684;DHT22;1858;48.716;9.648;2024-03-02T03:25:07;6.60;99.90
3684;DHT22;1858;48.716;9.648;2024-03-02T03:27:54;6.60;99.90
3684;DHT22;1858;48.716;9.648;2024-03-02T03:30:21;6.60;99.90
3684;DHT22;1858;48.716;9.648;2024-03-02T03:32:49;6.60;99.90
3684;DHT22;1858;48.716;9.648;2024-03-02T03:35:17;6.70;99.90
3684;DHT22;1858;48.716;9.648;2024-03-02T03:37:45;6.70;99.90
3684;DHT22;1858;48.716;9.648;2024-03-02T03:40:12;6.70;99.90
3684;DHT22;1858;48.716;9.648;2024-03-02T03:42:41;6.60;99.90
3684;DHT22;1858;48.716;9.648;2024-03-02T03:45:08;6.70;99.90
3684;DHT22;1858;48.716;9.648;2024-03-02T03:47:36;6.80;99.90
3684;DHT22;1858;48.716;9.648;2024-03-02T03:50:04;6.80;99.90
3684;DHT22;1858;48.716;9.648;2024-03-02T03:52:33;6.80;99.90
3684;DHT22;1858;48.716;9.648;2024-03-02T03:55:01;6.70;99.90
3684;DHT22;1858;48.716;9.648;2024-03-02T03:57:29;6.80;99.90
3684;DHT22;1858;48.716;9.648;2024-03-02T03:59:56;6.70;99.90
3684;DHT22;1858;48.716;9.648;2024-03-02T04:02:24;6.70;99.90
3684;DHT22;1858;48.716;9.648;2024-03-02T04:07:39;6.70;99.90
3684;DHT22;1858;48.716;9.648;2024-03-02T04:10:09;6.70;99.90
3684;DHT22;1858;48.716;9.648;2024-03-02T04:12:39;6.70;99.90
3684;DHT22;1858;48.716;9.648;2024-03-02T04:15:06;6.70;99.90
3684;DHT22;1858;48.716;9.648;2024-03-02T04:17:34;6.60;99.90
3684;DHT22;1858;48.716;9.648;2024-03-02T04:20:03;6.60;99.90
3684;DHT22;1858;48.716;9.648;2024-03-02T04:22:35;6.60;99.90
3684;DHT22;1858;48.716;9.648;2024-03-02T04:25:03;6.60;99.90
3684;DHT22;1858;48.716;9.648;2024-03-02T04:27:31;6.50;99.90
3684;DHT22;1858;48.716;9.648;2024-03-02T04:30:00;6.50;99.90
3684;DHT22;1858;48.716;9.648;2024-03-02T04:32:28;6.50;99.90
3684;DHT22;1858;48.716;9.648;2024-03-02T04:34:56;6.50;99.90
3684;DHT22;1858;48.716;9.648;2024-03-02T04:37:23;6.60;99.90
3684;DHT22;1858;48.716;9.648;2024-03-02T04:39:51;6.60;99.90
3684;DHT22;1858;48.716;9.648;2024-03-02T04:42:18;6.60;99.90
3684;DHT22;1858;48.716;9.648;2024-03-02T04:44:46;6.70;99.90
3684;DHT22;1858;48.716;9.648;2024-03-02T04:47:13;6.70;99.90
3684;DHT22;1858;48.716;9.648;2024-03-02T04:49:41;6.80;99.90
3684;DHT22;1858;48.716;9.648;2024-03-02T04:52:09;6.70;99.90
3684;DHT22;1858;48.716;9.648;2024-03-02T04:54:37;6.70;99.90
3684;DHT22;1858;48.716;9.648;2024-03-02T04:57:06;6.80;99.90
3684;DHT22;1858;48.716;9.648;2024-03-02T04:59:34;6.80;99.90
3684;DHT22;1858;48.716;9.648;2024-03-02T05:02:01;6.90;99.90
3684;DHT22;1858;48.716;9.648;2024-03-02T05:04:29;6.90;8.00
3684;DHT22;1858;48.716;9.648;2024-03-02T05:06:57;6.90;1.00
3684;DHT22;1858;48.716;9.648;2024-03-02T05:09:24;6.90;1.00
3684;DHT22;1858;48.716;9.648;2024-03-02T05:11:52;6.90;1.00
3684;DHT22;1858;48.716;9.648;2024-03-02T05:14:38;6.90;1.00
3684;DHT22;1858;48.716;9.648;2024-03-02T05:17:05;7.00;1.00
3684;DHT22;1858;48.716;9.648;2024-03-02T05:19:33;7.00;1.00
3684;DHT22;1858;48.716;9.648;2024-03-02T05:22:00;7.00;1.00
3684;DHT22;1858;48.716;9.648;2024-03-02T05:24:29;7.10;1.00
3684;DHT22;1858;48.716;9.648;2024-03-02T05:26:57;7.10;1.00
3684;DHT22;1858;48.716;9.648;2024-03-02T05:29:24;7.10;1.00
3684;DHT22;1858;48.716;9.648;2024-03-02T05:31:52;7.10;1.00
3684;DHT22;1858;48.716;9.648;2024-03-02T05:34:19;7.10;1.00
3684;DHT22;1858;48.716;9.648;2024-03-02T05:36:47;7.10;1.00
3684;DHT22;1858;48.716;9.648;2024-03-02T05:39:15;7.00;1.00
3684;DHT22;1858;48.716;9.648;2024-03-02T05:41:42;7.00;1.00
3684;DHT22;1858;48.716;9.648;2024-03-02T05:44:10;7.00;1.00
3684;DHT22;1858;48.716;9.648;2024-03-02T05:46:37;7.00;1.00
3684;DHT22;1858;48.716;9.648;2024-03-02T05:49:05;7.00;1.00
3684;DHT22;1858;48.716;9.648;2024-03-02T05:51:34;7.00;1.00
3684;DHT22;1858;48.716;9.648;2024-03-02T05:54:02;7.00;1.00
3684;DHT22;1858;48.716;9.648;2024-03-02T05:56:29;7.00;1.00
3684;DHT22;1858;48.716;9.648;2024-03-02T05:58:57;7.10;1.00
3684;DHT22;1858;48.716;9.648;2024-03-02T06:01:26;7.00;1.00
3684;DHT22;1858;48.716;9.648;2024-03-02T06:03:56;7.00;1.00
3684;DHT22;1858;48.716;9.648;2024-03-02T06:06:23;7.00;1.00
3684;DHT22;1858;48.716;9.648;2024-03-02T06:08:51;7.00;1.00
3684;DHT22;1858;48.716;9.648;2024-03-02T06:11:19;7.00;1.00
3684;DHT22;1858;48.716;9.648;2024-03-02T06:13:47;7.00;1.00
3684;DHT22;1858;48.716;9.648;2024-03-02T06:16:14;7.00;1.00
3684;DHT22;1858;48.716;9.648;2024-03-02T06:18:42;7.00;1.00
3684;DHT22;1858;48.716;9.648;2024-03-02T06:26:43;6.90;1.00
3684;DHT22;1858;48.716;9.648;2024-03-02T06:29:11;7.00;1.00
3684;DHT22;1858;48.716;9.648;2024-03-02T06:31:38;7.00;1.00
3684;DHT22;1858;48.716;9.648;2024-03-02T06:34:06;7.00;1.00
3684;DHT22;1858;48.716;9.648;2024-03-02T06:36:35;7.10;1.00
3684;DHT22;1858;48.716;9.648;2024-03-02T06:39:02;7.00;1.00
3684;DHT22;1858;48.716;9.648;2024-03-02T06:41:30;7.00;1.00
3684;DHT22;1858;48.716;9.648;2024-03-02T06:43:57;7.10;1.00
3684;DHT22;1858;48.716;9.648;2024-03-02T06:46:28;7.20;1.00
3684;DHT22;1858;48.716;9.648;2024-03-02T06:48:56;7.30;99.90
3684;DHT22;1858;48.716;9.648;2024-03-02T06:51:23;7.30;99.90
3684;DHT22;1858;48.716;9.648;2024-03-02T06:53:51;7.30;99.90
3684;DHT22;1858;48.716;9.648;2024-03-02T06:56:19;7.40;99.90
3684;DHT22;1858;48.716;9.648;2024-03-02T06:58:46;7.40;99.90
3684;DHT22;1858;48.716;9.648;2024-03-02T07:01:14;7.50;99.90
3684;DHT22;1858;48.716;9.648;2024-03-02T07:03:41;7.60;99.90
3684;DHT22;1858;48.716;9.648;2024-03-02T07:06:10;7.50;99.90
3684;DHT22;1858;48.716;9.648;2024-03-02T07:08:38;7.50;99.90
3684;DHT22;1858;48.716;9.648;2024-03-02T07:11:05;7.60;99.90
3684;DHT22;1858;48.716;9.648;2024-03-02T07:13:33;7.60;99.90
3684;DHT22;1858;48.716;9.648;2024-03-02T07:16:01;7.70;99.90
3684;DHT22;1858;48.716;9.648;2024-03-02T07:18:52;7.70;99.90
3684;DHT22;1858;48.716;9.648;2024-03-02T07:21:21;7.70;99.90
3684;DHT22;1858;48.716;9.648;2024-03-02T07:24:10;7.70;99.90
3684;DHT22;1858;48.716;9.648;2024-03-02T07:26:39;7.80;99.90
3684;DHT22;1858;48.716;9.648;2024-03-02T07:29:07;7.90;99.90
3684;DHT22;1858;48.716;9.648;2024-03-02T07:31:34;7.90;99.90
3684;DHT22;1858;48.716;9.648;2024-03-02T07:34:02;7.90;93.50
3684;DHT22;1858;48.716;9.648;2024-03-02T07:36:30;8.00;96.30
3684;DHT22;1858;48.716;9.648;2024-03-02T07:38:57;8.10;79.60
3684;DHT22;1858;48.716;9.648;2024-03-02T07:41:25;8.10;48.70
3684;DHT22;1858;48.716;9.648;2024-03-02T07:43:52;8.20;15.80
3684;DHT22;1858;48.716;9.648;2024-03-02T07:46:20;8.30;1.00
3684;DHT22;1858;48.716;9.648;2024-03-02T07:48:48;8.40;1.00
3684;DHT22;1858;48.716;9.648;2024-03-02T07:51:17;8.40;1.00
3684;DHT22;1858;48.716;9.648;2024-03-02T07:53:45;8.60;1.00
3684;DHT22;1858;48.716;9.648;2024-03-02T07:56:12;8.70;1.00
3684;DHT22;1858;48.716;9.648;2024-03-02T07:58:40;8.70;1.00
3684;DHT22;1858;48.716;9.648;2024-03-02T08:01:09;8.90;1.00
3684;DHT22;1858;48.716;9.648;2024-03-02T08:03:37;8.90;1.00
3684;DHT22;1858;48.716;9.648;2024-03-02T08:06:04;9.00;1.00
3684;DHT22;1858;48.716;9.648;2024-03-02T08:08:32;9.20;1.00
3684;DHT22;1858;48.716;9.648;2024-03-02T08:11:00;9.40;1.00
3684;DHT22;1858;48.716;9.648;2024-03-02T08:13:28;9.70;1.00
3684;DHT22;1858;48.716;9.648;2024-03-02T08:15:55;9.90;1.00
3684;DHT22;1858;48.716;9.648;2024-03-02T08:18:23;10.20;1.00
3684;DHT22;1858;48.716;9.648;2024-03-02T08:20:51;10.50;99.90
3684;DHT22;1858;48.716;9.648;2024-03-02T08:23:18;10.90;99.90
3684;DHT22;1858;48.716;9.648;2024-03-02T08:25:46;11.10;99.90
3684;DHT22;1858;48.716;9.648;2024-03-02T08:28:14;11.40;99.90
3684;DHT22;1858;48.716;9.648;2024-03-02T08:30:41;11.50;99.90
3684;DHT22;1858;48.716;9.648;2024-03-02T08:35:56;11.70;99.90
3684;DHT22;1858;48.716;9.648;2024-03-02T08:38:23;12.10;99.90
3684;DHT22;1858;48.716;9.648;2024-03-02T08:40:51;12.30;99.90
3684;DHT22;1858;48.716;9.648;2024-03-02T08:43:19;12.60;99.90
3684;DHT22;1858;48.716;9.648;2024-03-02T08:45:46;13.00;99.90
3684;DHT22;1858;48.716;9.648;2024-03-02T08:48:14;13.40;99.90
3684;DHT22;1858;48.716;9.648;2024-03-02T08:50:42;13.60;56.70
3684;DHT22;1858;48.716;9.648;2024-03-02T08:53:09;13.80;20.90
3684;DHT22;1858;48.716;9.648;2024-03-02T08:55:37;14.10;19.20
3684;DHT22;1858;48.716;9.648;2024-03-02T08:58:04;14.40;1.00
3684;DHT22;1858;48.716;9.648;2024-03-02T09:00:32;14.50;1.00
3684;DHT22;1858;48.716;9.648;2024-03-02T09:03:00;14.60;1.00
3684;DHT22;1858;48.716;9.648;2024-03-02T09:05:27;15.00;1.00
3684;DHT22;1858;48.716;9.648;2024-03-02T09:07:55;15.50;1.00
3684;DHT22;1858;48.716;9.648;2024-03-02T09:10:23;16.10;1.00
3684;DHT22;1858;48.716;9.648;2024-03-02T09:12:50;16.50;1.00
3684;DHT22;1858;48.716;9.648;2024-03-02T09:15:21;16.50;1.00
3684;DHT22;1858;48.716;9.648;2024-03-02T09:17:49;16.60;1.00
3684;DHT22;1858;48.716;9.648;2024-03-02T09:20:16;16.80;1.00
3684;DHT22;1858;48.716;9.648;2024-03-02T09:22:44;16.90;1.00
3684;DHT22;1858;48.716;9.648;2024-03-02T09:25:13;17.00;1.00
3684;DHT22;1858;48.716;9.648;2024-03-02T09:27:42;16.70;1.00
3684;DHT22;1858;48.716;9.648;2024-03-02T09:30:10;16.30;1.00
3684;DHT22;1858;48.716;9.648;2024-03-02T09:32:38;16.10;1.00
3684;DHT22;1858;48.716;9.648;2024-03-02T09:35:05;15.90;1.00
3684;DHT22;1858;48.716;9.648;2024-03-02T09:37:33;15.80;1.00
3684;DHT22;1858;48.716;9.648;2024-03-02T09:40:01;15.60;1.00
3684;DHT22;1858;48.716;9.648;2024-03-02T09:42:29;15.50;1.00
3684;DHT22;1858;48.716;9.648;2024-03-02T09:44:56;15.50;1.00
3684;DHT22;1858;48.716;9.648;2024-03-02T09:47:24;15.90;1.00
3684;DHT22;1858;48.716;9.648;2024-03-02T09:49:52;16.40;1.00
3684;DHT22;1858;48.716;9.648;2024-03-02T09:52:20;16.90;1.00
3684;DHT22;1858;48.716;9.648;2024-03-02T09:54:48;17.70;1.00
3684;DHT22;1858;48.716;9.648;2024-03-02T09:57:23;18.40;1.00
3684;DHT22;1858;48.716;9.648;2024-03-02T09:59:50;19.00;1.00
3684;DHT22;1858;48.716;9.648;2024-03-02T10:02:18;19.60;1.00
3684;DHT22;1858;48.716;9.648;2024-03-02T10:04:48;19.90;1.00
3684;DHT22;1858;48.716;9.648;2024-03-02T10:07:18;20.60;1.00
3684;DHT22;1858;48.716;9.648;2024-03-02T10:10:16;21.60;1.00
3684;DHT22;1858;48.716;9.648;2024-03-02T10:12:35;22.40;1.00
3684;DHT22;1858;48.716;9.648;2024-03-02T10:15:26;23.40;99.90
3684;DHT22;1858;48.716;9.648;2024-03-02T10:17:54;23.90;99.90
3684;DHT22;1858;48.716;9.648;2024-03-02T10:20:27;24.20;99.90
3684;DHT22;1858;48.716;9.648;2024-03-02T10:23:19;24.30;99.90
3684;DHT22;1858;48.716;9.648;2024-03-02T10:25:48;24.10;99.90
3684;DHT22;1858;48.716;9.648;2024-03-02T10:28:16;24.30;99.90
3684;DHT22;1858;48.716;9.648;2024-03-02T10:31:04;24.40;99.90
3684;DHT22;1858;48.716;9.648;2024-03-02T10:33:33;24.70;99.90
3684;DHT22;1858;48.716;9.648;2024-03-02T10:36:02;25.00;99.90
3684;DHT22;1858;48.716;9.648;2024-03-02T10:38:31;25.00;99.90
3684;DHT22;1858;48.716;9.648;2024-03-02T10:41:00;25.00;99.90
3684;DHT22;1858;48.716;9.648;2024-03-02T10:43:29;24.90;99.90
3684;DHT22;1858;48.716;9.648;2024-03-02T10:45:58;25.00;99.90
3684;DHT22;1858;48.716;9.648;2024-03-02T10:48:27;24.90;99.90
3684;DHT22;1858;48.716;9.648;2024-03-02T10:50:56;25.00;99.90
3684;DHT22;1858;48.716;9.648;2024-03-02T10:53:26;25.20;99.90
3684;DHT22;1858;48.716;9.648;2024-03-02T10:55:57;25.30;99.90
3684;DHT22;1858;48.716;9.648;2024-03-02T10:58:31;25.00;99.90
3684;DHT22;1858;48.716;9.648;2024-03-02T11:01:01;25.10;99.90
3684;DHT22;1858;48.716;9.648;2024-03-02T11:03:33;25.20;99.90
3684;DHT22;1858;48.716;9.648;2024-03-02T11:06:01;25.10;99.90
3684;DHT22;1858;48.716;9.648;2024-03-02T11:08:32;24.90;99.90
3684;DHT22;1858;48.716;9.648;2024-03-02T11:11:06;24.60;99.90
3684;DHT22;1858;48.716;9.648;2024-03-02T11:13:49;23.90;99.90
3684;DHT22;1858;48.716;9.648;2024-03-02T11:16:33;22.90;99.90
3684;DHT22;1858;48.716;9.648;2024-03-02T11:19:25;22.20;99.90
3684;DHT22;1858;48.716;9.648;2024-03-02T11:21:53;21.80;99.90
3684;DHT22;1858;48.716;9.648;2024-03-02T11:30:05;22.10;99.90
3684;DHT22;1858;48.716;9.648;2024-03-02T11:32:33;21.90;99.90
3684;DHT22;1858;48.716;9.648;2024-03-02T11:35:02;21.80;99.90
3684;DHT22;1858;48.716;9.648;2024-03-02T11:37:31;21.60;99.90
3684;DHT22;1858;48.716;9.648;2024-03-02T11:39:59;21.40;99.90
3684;DHT22;1858;48.716;9.648;2024-03-02T11:42:26;21.10;99.90
3684;DHT22;1858;48.716;9.648;2024-03-02T11:44:55;20.90;99.90
3684;DHT22;1858;48.716;9.648;2024-03-02T11:47:23;20.60;99.90
3684;DHT22;1858;48.716;9.648;2024-03-02T11:49:51;20.40;99.90
3684;DHT22;1858;48.716;9.648;2024-03-02T11:52:19;20.00;99.90
3684;DHT22;1858;48.716;9.648;2024-03-02T11:54:47;19.70;99.90
3684;DHT22;1858;48.716;9.648;2024-03-02T11:57:18;19.20;99.90
3684;DHT22;1858;48.716;9.648;2024-03-02T11:59:46;18.90;99.90
3684;DHT22;1858;48.716;9.648;2024-03-02T12:02:17;18.50;99.90
3684;DHT22;1858;48.716;9.648;2024-03-02T12:04:46;18.10;99.90
3684;DHT22;1858;48.716;9.648;2024-03-02T12:07:18;17.90;99.90
3684;DHT22;1858;48.716;9.648;2024-03-02T12:10:06;17.60;99.90
3684;DHT22;1858;48.716;9.648;2024-03-02T12:12:34;17.50;99.90
3684;DHT22;1858;48.716;9.648;2024-03-02T12:15:01;17.30;99.90
3684;DHT22;1858;48.716;9.648;2024-03-02T12:17:30;17.20;99.90
3684;DHT22;1858;48.716;9.648;2024-03-02T12:19:57;17.10;1.00
3684;DHT22;1858;48.716;9.648;2024-03-02T12:22:25;17.00;99.90
3684;DHT22;1858;48.716;9.648;2024-03-02T12:24:52;16.90;99.90
3684;DHT22;1858;48.716;9.648;2024-03-02T12:27:20;16.80;1.00
3684;DHT22;1858;48.716;9.648;2024-03-02T12:29:48;16.60;99.90
3684;DHT22;1858;48.716;9.648;2024-03-02T12:32:16;16.60;1.00
3684;DHT22;1858;48.716;9.648;2024-03-02T12:34:46;16.50;1.00
3684;DHT22;1858;48.716;9.648;2024-03-02T12:37:14;16.40;1.40
3684;DHT22;1858;48.716;9.648;2024-03-02T12:42:28;16.20;1.00
3684;DHT22;1858;48.716;9.648;2024-03-02T12:44:56;16.20;1.00
3684;DHT22;1858;48.716;9.648;2024-03-02T12:47:24;16.20;99.90
3684;DHT22;1858;48.716;9.648;2024-03-02T12:49:51;16.10;99.90
3684;DHT22;1858;48.716;9.648;2024-03-02T12:52:19;16.10;99.90
3684;DHT22;1858;48.716;9.648;2024-03-02T12:54:47;16.00;99.90
3684;DHT22;1858;48.716;9.648;2024-03-02T12:57:17;15.90;99.90
3684;DHT22;1858;48.716;9.648;2024-03-02T12:59:45;15.90;99.90
3684;DHT22;1858;48.716;9.648;2024-03-02T13:02:21;15.90;99.90
3684;DHT22;1858;48.716;9.648;2024-03-02T13:04:52;16.00;99.90
3684;DHT22;1858;48.716;9.648;2024-03-02T13:07:14;16.00;99.90
3684;DHT22;1858;48.716;9.648;2024-03-02T13:09:42;16.00;99.90
3684;DHT22;1858;48.716;9.648;2024-03-02T13:12:09;15.90;99.90
3684;DHT22;1858;48.716;9.648;2024-03-02T13:14:37;15.90;99.90
3684;DHT22;1858;48.716;9.648;2024-03-02T13:17:05;15.80;99.90
3684;DHT22;1858;48.716;9.648;2024-03-02T13:19:34;15.80;99.90
3684;DHT22;1858;48.716;9.648;2024-03-02T13:22:23;15.80;99.90
3684;DHT22;1858;48.716;9.648;2024-03-02T13:24:51;15.80;99.90
3684;DHT22;1858;48.716;9.648;2024-03-02T13:27:21;15.80;99.90
3684;DHT22;1858;48.716;9.648;2024-03-02T13:29:48;15.80;99.90
3684;DHT22;1858;48.716;9.648;2024-03-02T13:32:16;15.80;99.90
3684;DHT22;1858;48.716;9.648;2024-03-02T13:34:45;15.80;99.90
3684;DHT22;1858;48.716;9.648;2024-03-02T13:37:13;15.70;99.90
3684;DHT22;1858;48.716;9.648;2024-03-02T13:39:41;15.80;1.00
3684;DHT22;1858;48.716;9.648;2024-03-02T13:42:09;15.70;1.40
3684;DHT22;1858;48.716;9.648;2024-03-02T13:44:37;15.70;1.00
3684;DHT22;1858;48.716;9.648;2024-03-02T13:47:05;15.70;1.00
3684;DHT22;1858;48.716;9.648;2024-03-02T13:49:33;15.70;1.00
3684;DHT22;1858;48.716;9.648;2024-03-02T13:52:08;15.70;1.00
3684;DHT22;1858;48.716;9.648;2024-03-02T13:54:39;15.70;1.00
3684;DHT22;1858;48.716;9.648;2024-03-02T13:57:08;15.70;1.00
3684;DHT22;1858;48.716;9.648;2024-03-02T13:59:37;15.70;1.00
3684;DHT22;1858;48.716;9.648;2024-03-02T14:02:05;15.70;1.00
3684;DHT22;1858;48.716;9.648;2024-03-02T14:04:33;15.70;1.00
3684;DHT22;1858;48.716;9.648;2024-03-02T14:07:01;15.70;1.00
3684;DHT22;1858;48.716;9.648;2024-03-02T14:09:29;15.70;1.00
3684;DHT22;1858;48.716;9.648;2024-03-02T14:11:57;15.60;1.00
3684;DHT22;1858;48.716;9.648;2024-03-02T14:14:26;15.60;1.00
3684;DHT22;1858;48.716;9.648;2024-03-02T14:16:54;15.50;1.00
3684;DHT22;1858;48.716;9.648;2024-03-02T14:19:23;15.50;1.00
3684;DHT22;1858;48.716;9.648;2024-03-02T14:21:51;15.50;1.00
3684;DHT22;1858;48.716;9.648;2024-03-02T14:24:18;15.40;1.00
3684;DHT22;1858;48.716;9.648;2024-03-02T14:26:48;15.30;1.00
3684;DHT22;1858;48.716;9.648;2024-03-02T14:29:15;15.30;1.00
3684;DHT22;1858;48.716;9.648;2024-03-02T14:31:43;15.30;1.00
3684;DHT22;1858;48.716;9.648;2024-03-02T14:34:10;15.20;1.00
3684;DHT22;1858;48.716;9.648;2024-03-02T14:36:38;15.20;1.00
3684;DHT22;1858;48.716;9.648;2024-03-02T14:39:06;15.20;1.00
3684;DHT22;1858;48.716;9.648;2024-03-02T14:41:41;15.20;1.00
3684;DHT22;1858;48.716;9.648;2024-03-02T14:44:04;15.10;1.00
3684;DHT22;1858;48.716;9.648;2024-03-02T14:46:32;15.10;1.00
3684;DHT22;1858;48.716;9.648;2024-03-02T14:49:00;15.00;1.00
3684;DHT22;1858;48.716;9.648;2024-03-02T14:51:28;15.00;1.00
3684;DHT22;1858;48.716;9.648;2024-03-02T14:53:56;14.90;1.00
3684;DHT22;1858;48.716;9.648;2024-03-02T14:59:17;14.90;1.00
3684;DHT22;1858;48.716;9.648;2024-03-02T15:01:45;14.90;1.00
3684;DHT22;1858;48.716;9.648;2024-03-02T15:04:14;14.90;1.00
3684;DHT22;1858;48.716;9.648;2024-03-02T15:06:43;14.80;1.00
3684;DHT22;1858;48.716;9.648;2024-03-02T15:09:10;14.80;1.00
3684;DHT22;1858;48.716;9.648;2024-03-02T15:11:38;14.80;1.00
3684;DHT22;1858;48.716;9.648;2024-03-02T15:14:06;14.70;1.00
3684;DHT22;1858;48.716;9.648;2024-03-02T15:16:34;14.70;1.00
3684;DHT22;1858;48.716;9.648;2024-03-02T15:19:01;14.70;1.00
3684;DHT22;1858;48.716;9.648;2024-03-02T15:21:29;14.70;1.00
3684;DHT22;1858;48.716;9.648;2024-03-02T15:23:57;14.70;1.00
3684;DHT22;1858;48.716;9.648;2024-03-02T15:26:24;14.70;1.00
3684;DHT22;1858;48.716;9.648;2024-03-02T15:28:52;14.70;1.00
3684;DHT22;1858;48.716;9.648;2024-03-02T15:31:43;14.60;1.00
3684;DHT22;1858;48.716;9.648;2024-03-02T15:34:11;14.50;1.00
3684;DHT22;1858;48.716;9.648;2024-03-02T15:36:38;14.50;1.00
3684;DHT22;1858;48.716;9.648;2024-03-02T15:39:06;14.50;1.00
3684;DHT22;1858;48.716;9.648;2024-03-02T15:41:35;14.50;1.00
3684;DHT22;1858;48.716;9.648;2024-03-02T15:44:03;14.30;1.00
3684;DHT22;1858;48.716;9.648;2024-03-02T15:46:30;14.30;1.00
3684;DHT22;1858;48.716;9.648;2024-03-02T15:48:58;14.30;1.00
3684;DHT22;1858;48.716;9.648;2024-03-02T15:51:27;14.20;1.00
3684;DHT22;1858;48.716;9.648;2024-03-02T15:53:55;14.10;1.00
3684;DHT22;1858;48.716;9.648;2024-03-02T15:56:22;14.10;1.00
3684;DHT22;1858;48.716;9.648;2024-03-02T15:58:50;14.00;1.00
3684;DHT22;1858;48.716;9.648;2024-03-02T16:01:17;13.90;1.00
3684;DHT22;1858;48.716;9.648;2024-03-02T16:03:46;13.90;1.00
3684;DHT22;1858;48.716;9.648;2024-03-02T16:06:14;13.90;1.00
3684;DHT22;1858;48.716;9.648;2024-03-02T16:08:41;13.90;1.00
3684;DHT22;1858;48.716;9.648;2024-03-02T16:11:09;13.90;1.00
3684;DHT22;1858;48.716;9.648;2024-03-02T16:13:37;13.80;1.00
3684;DHT22;1858;48.716;9.648;2024-03-02T16:16:05;13.70;1.00
3684;DHT22;1858;48.716;9.648;2024-03-02T16:18:32;13.70;1.00
3684;DHT22;1858;48.716;9.648;2024-03-02T16:21:01;13.50;1.00
3684;DHT22;1858;48.716;9.648;2024-03-02T16:23:30;13.60;1.00
3684;DHT22;1858;48.716;9.648;2024-03-02T16:25:57;13.50;1.00
3684;DHT22;1858;48.716;9.648;2024-03-02T16:28:25;13.50;1.00
3684;DHT22;1858;48.716;9.648;2024-03-02T16:30:52;13.40;1.00
3684;DHT22;1858;48.716;9.648;2024-03-02T16:33:20;13.30;1.00
3684;DHT22;1858;48.716;9.648;2024-03-02T16:35:48;13.20;1.00
3684;DHT22;1858;48.716;9.648;2024-03-02T16:38:16;13.20;1.00
3684;DHT22;1858;48.716;9.648;2024-03-02T16:40:44;13.20;1.00
3684;DHT22;1858;48.716;9.648;2024-03-02T16:43:12;13.20;1.00
3684;DHT22;1858;48.716;9.648;2024-03-02T16:45:40;13.10;1.00
3684;DHT22;1858;48.716;9.648;2024-03-02T16:48:07;13.10;1.00
3684;DHT22;1858;48.716;9.648;2024-03-02T16:50:35;13.00;1.00
3684;DHT22;1858;48.716;9.648;2024-03-02T16:53:02;12.90;1.00
3684;DHT22;1858;48.716;9.648;2024-03-02T16:55:30;12.80;1.00